This is the latest recevied weather packets stored in our database for station/object DH0DM-13. If no packets are shown the sender has not sent any weather packets the latest 10 day(s).
| Time | Temp. | Humidity | Pressure | Rain* | Wind** | Luminosity | Snow |
|---|---|---|---|---|---|---|---|
| 1787537073 | 7.78° C | 91% | 995.7 hPa | 0 mm | 0.89 m/s, 77° | - | - |
| 1787536472 | 8.33° C | 91% | 995.9 hPa | 0 mm | 0.45 m/s, 40° | - | - |
| 1787535871 | 8.33° C | 90% | 995.8 hPa | 0 mm | 0 m/s | - | - |
| 1787535270 | 8.33° C | 89% | 995.7 hPa | 0 mm | 0.45 m/s, 80° | - | - |
| 1787534669 | 8.33° C | 89% | 995.8 hPa | 0 mm | 0 m/s | - | - |
| 1787534068 | 8.33° C | 89% | 995.6 hPa | 0 mm | 0.45 m/s, 126° | - | - |
| 1787533467 | 8.89° C | 89% | 995.7 hPa | 0 mm | 0 m/s | - | - |
| 1787532866 | 8.89° C | 88% | 995.9 hPa | 0 mm | 0 m/s | - | - |
| 1787532265 | 9.44° C | 87% | 995.7 hPa | 0 mm | 0 m/s | - | - |
| 1787531664 | 9.44° C | 85% | 995.6 hPa | 0 mm | 0 m/s | - | - |
| 1787531063 | 10° C | 83% | 995.5 hPa | 0 mm | 0.89 m/s, 324° | - | - |
| 1787530462 | 10.56° C | 81% | 995.5 hPa | 0 mm | 0 m/s | - | - |
| 1787529861 | 11.11° C | 77% | 995.7 hPa | 0 mm | 0.89 m/s, 13° | - | - |
| 1787529260 | 11.67° C | 74% | 995.7 hPa | 0 mm | 0 m/s | - | - |
| 1787528659 | 12.22° C | 72% | 995.6 hPa | 0 mm | 3.58 m/s, 209° | - | - |
| 1787528058 | 12.78° C | 71% | 995.5 hPa | 0 mm | 1.79 m/s, 225° | - | - |
| 1787527457 | 12.78° C | 69% | 995.5 hPa | 0 mm | 1.79 m/s, 239° | - | - |
| 1787526856 | 12.78° C | 68% | 995.6 hPa | 0 mm | 4.92 m/s, 243° | - | - |
| 1787526255 | 13.33° C | 69% | 995.6 hPa | 0 mm | 0.45 m/s, 254° | - | - |
| 1787525654 | 13.33° C | 66% | 995.8 hPa | 0 mm | 4.92 m/s, 279° | - | - |
| 1787525053 | 13.33° C | 68% | 995.6 hPa | 0 mm | 2.24 m/s, 215° | - | - |
| 1787524453 | 12.22° C | 73% | 995.7 hPa | 0 mm | 0 m/s | - | - |
| 1787523852 | 11.67° C | 76% | 995.6 hPa | 0 mm | 0 m/s | - | - |
| 1787523251 | 10.56° C | 81% | 995.7 hPa | 0 mm | 0.89 m/s, 253° | - | - |
| 1787522650 | 10.56° C | 81% | 995.6 hPa | 0 mm | 0 m/s | - | - |
* Rain since midnight (hover to see other rain measurements)
** Current wind speed in m/s (hover to see current wind gust speed)